Baucum, Arkansas
Current Conditions -  °F | °C
As of 9:53 AM on Thursday 29 Jan 2015 (Local Time) from KLIT Reporting Station
Broken Clouds Broken Clouds  
Wind Chill: 58°   Ceiling: 25000
Heat Index: 58°   Visibility: 10mi
Dew Point: 44°   Wind: 9mph
Humidity: 60%   Direction: 260°W
Pressure: 30.13"   Gusts: NA
Location:  34.757°N, 92.1411°W
Report Text: KLIT 291553Z 26008KT 10SM FEW120 BKN250 14/07 A3013 RMK AO2 SLP204 T01440067
Loading
Personal Weather Stations






























Interactive Weather Map New forecast layout! Learn more

10-Day Weather Forecast

Advertisements
Track Severe Weather on mobile